Time;durP1;ratioP1;P1;durP2;ratioP2;P2;SDS_P1;SDS_P2;PMS_P1;PMS_P2;Temp;Humidity;BMP_temperature;BMP_pressure;BME280_temperature;BME280_humidity;BME280_pressure;Samples;Min_cycle;Max_cycle;Signal;HPM_P1;HPM_P2
2022/12/13 00:00:29;;;;;;;5.87;3.83;;;-5.20;68.40;;;;;;5043664;28;20202;-60
2022/12/13 00:02:55;;;;;;;6.03;4.00;;;-5.20;68.50;;;;;;5048651;28;20198;-60
2022/12/13 00:05:21;;;;;;;6.73;4.37;;;-5.20;68.50;;;;;;5045488;28;20191;-60
2022/12/13 00:07:46;;;;;;;5.83;3.90;;;-5.40;69.10;;;;;;5019475;28;20191;-60
2022/12/13 00:10:12;;;;;;;4.90;3.33;;;-5.30;69.20;;;;;;5059706;28;20245;-60
2022/12/13 00:12:38;;;;;;;5.93;4.17;;;-5.40;68.90;;;;;;5045929;28;20211;-60
2022/12/13 00:15:05;;;;;;;3.63;3.27;;;-5.40;68.90;;;;;;5041718;28;20254;-60
2022/12/13 00:17:31;;;;;;;6.87;4.33;;;-5.30;68.70;;;;;;5038356;28;20645;-60
2022/12/13 00:19:57;;;;;;;6.03;4.15;;;-5.40;68.90;;;;;;5049502;28;20441;-60
2022/12/13 00:22:23;;;;;;;7.07;3.97;;;-5.30;69.10;;;;;;5072431;28;20277;-60
2022/12/13 00:24:49;;;;;;;7.70;4.10;;;-5.30;68.70;;;;;;5039402;28;20244;-60
2022/12/13 00:27:15;;;;;;;6.33;3.70;;;-5.20;68.70;;;;;;5051941;28;20195;-60
2022/12/13 00:29:40;;;;;;;5.60;3.80;;;-5.30;68.40;;;;;;5035390;28;20201;-60
2022/12/13 00:32:06;;;;;;;6.73;4.10;;;-5.20;68.70;;;;;;5035250;28;20268;-60
2022/12/13 00:34:32;;;;;;;4.93;3.63;;;-5.40;68.90;;;;;;5051869;28;20187;-60
2022/12/13 00:36:58;;;;;;;6.90;3.77;;;-5.40;69.00;;;;;;5028211;28;20198;-60
2022/12/13 00:39:23;;;;;;;5.37;3.17;;;-5.40;68.70;;;;;;5049298;28;20648;-60
2022/12/13 00:41:50;;;;;;;6.80;4.47;;;-5.40;68.80;;;;;;5053650;28;20203;-60
2022/12/13 00:44:17;;;;;;;7.03;3.90;;;-5.40;69.00;;;;;;5046023;28;20227;-60
2022/12/13 00:46:43;;;;;;;6.47;3.80;;;-5.40;69.00;;;;;;5036153;28;20203;-60
2022/12/13 00:49:10;;;;;;;6.60;3.73;;;-5.40;69.00;;;;;;5039342;28;20422;-60
2022/12/13 00:51:36;;;;;;;7.03;3.87;;;-5.40;69.00;;;;;;5057091;28;20206;-60
2022/12/13 00:54:01;;;;;;;7.00;4.73;;;-5.60;70.00;;;;;;5033561;28;20437;-60
2022/12/13 00:56:29;;;;;;;5.97;3.80;;;-5.50;69.40;;;;;;5037063;28;20183;-60
2022/12/13 00:58:56;;;;;;;6.25;3.75;;;-5.50;69.40;;;;;;5047121;28;20187;-60
2022/12/13 01:01:30;;;;;;;4.82;3.55;;;-5.60;69.20;;;;;;5084766;28;20201;-60
2022/12/13 01:03:58;;;;;;;6.13;3.58;;;-5.60;69.30;;;;;;5048307;28;20228;-60
2022/12/13 01:06:30;;;;;;;4.55;3.45;;;-5.60;69.40;;;;;;5049203;28;20237;-60
2022/12/13 01:08:56;;;;;;;7.22;3.70;;;-5.60;69.30;;;;;;5052088;28;20187;-60
2022/12/13 01:11:22;;;;;;;6.93;3.60;;;-5.60;69.70;;;;;;5049660;28;20272;-60
2022/12/13 01:13:48;;;;;;;6.32;3.60;;;-5.60;69.80;;;;;;5035274;28;20196;-60
2022/12/13 01:16:13;;;;;;;4.90;3.40;;;-5.60;70.20;;;;;;5032893;28;20195;-60
2022/12/13 01:18:40;;;;;;;6.43;3.43;;;-5.60;70.00;;;;;;5055021;28;20190;-60
2022/12/13 01:21:11;;;;;;;5.18;3.60;;;-5.60;70.00;;;;;;5084323;28;20256;-60
2022/12/13 01:23:38;;;;;;;5.05;3.55;;;-5.60;70.00;;;;;;5054901;28;20191;-60
2022/12/13 01:26:05;;;;;;;6.22;3.53;;;-5.60;69.70;;;;;;5052726;28;20198;-60
2022/12/13 01:28:31;;;;;;;7.32;4.13;;;-5.60;70.60;;;;;;5078456;28;20187;-60
2022/12/13 01:30:59;;;;;;;6.17;3.90;;;-5.60;70.50;;;;;;5054109;28;20219;-60
2022/12/13 01:33:26;;;;;;;6.30;3.70;;;-5.60;70.20;;;;;;5054476;28;20193;-60
2022/12/13 01:35:52;;;;;;;6.68;3.75;;;-5.60;70.80;;;;;;5036302;28;20186;-60
2022/12/13 01:38:18;;;;;;;4.53;3.43;;;-5.60;70.50;;;;;;5082682;28;20191;-60
2022/12/13 01:40:56;;;;;;;5.80;3.75;;;-5.70;71.50;;;;;;5054240;28;20214;-60
2022/12/13 01:43:24;;;;;;;4.50;3.58;;;-5.70;71.20;;;;;;5055317;28;20179;-60
2022/12/13 01:45:50;;;;;;;6.28;3.88;;;-5.70;70.70;;;;;;5054921;28;20312;-60
2022/12/13 01:48:26;;;;;;;5.70;3.60;;;-5.70;70.70;;;;;;5038703;28;20191;-60
2022/12/13 01:50:57;;;;;;;5.30;3.42;;;-5.70;70.70;;;;;;5070441;28;20195;-60
2022/12/13 01:53:27;;;;;;;7.18;3.65;;;-5.70;70.70;;;;;;5088036;28;20273;-61
2022/12/13 01:55:56;;;;;;;5.07;3.55;;;-5.70;70.90;;;;;;5050093;28;20188;-60
2022/12/13 01:58:23;;;;;;;6.50;3.25;;;-5.70;70.80;;;;;;5051893;28;20261;-61
2022/12/13 02:00:49;;;;;;;7.25;3.95;;;-5.70;70.50;;;;;;5032651;28;20198;-60
2022/12/13 02:03:16;;;;;;;4.65;3.47;;;-5.70;70.60;;;;;;5034538;28;20218;-60
2022/12/13 02:06:09;;;;;;;6.72;3.30;;;-5.70;70.50;;;;;;5078804;28;20270;-60
2022/12/13 02:08:36;;;;;;;9.32;3.80;;;-5.70;70.70;;;;;;5044394;28;20195;-60
2022/12/13 02:11:03;;;;;;;5.57;3.40;;;-5.80;70.70;;;;;;5038387;28;20216;-61
2022/12/13 02:13:28;;;;;;;7.35;3.80;;;-5.80;71.10;;;;;;5051333;28;20188;-60
2022/12/13 02:16:18;;;;;;;7.53;3.67;;;-5.80;71.10;;;;;;5034009;28;20197;-61
2022/12/13 02:18:49;;;;;;;8.63;3.80;;;-5.80;71.20;;;;;;5052619;28;20244;-60
2022/12/13 02:21:33;;;;;;;6.75;3.47;;;-5.80;71.60;;;;;;5053596;28;20195;-60
2022/12/13 02:24:08;;;;;;;6.03;3.70;;;-5.90;71.70;;;;;;5050486;28;20190;-60
2022/12/13 02:27:28;;;;;;;9.23;4.38;;;-5.90;71.30;;;;;;5051536;28;20245;-60
2022/12/13 02:30:12;;;;;;;7.07;3.85;;;-6.00;72.00;;;;;;5024848;28;20199;-60
2022/12/13 02:33:02;;;;;;;7.50;3.97;;;-6.00;71.60;;;;;;5040633;28;20207;-60
2022/12/13 02:35:40;;;;;;;8.20;5.22;;;-6.00;71.80;;;;;;5044192;28;20188;-60
2022/12/13 02:38:24;;;;;;;9.05;5.22;;;-6.00;71.70;;;;;;5044795;28;20183;-60
2022/12/13 02:41:05;;;;;;;10.25;4.88;;;-6.10;72.90;;;;;;5053931;28;20237;-61
2022/12/13 02:43:41;;;;;;;6.68;3.95;;;-6.10;72.50;;;;;;5046710;28;20205;-60
2022/12/13 02:46:09;;;;;;;6.95;4.03;;;-6.10;72.30;;;;;;5054154;28;20222;-61
2022/12/13 02:48:38;;;;;;;7.95;3.97;;;-6.10;72.20;;;;;;5053309;28;20577;-60
2022/12/13 02:51:05;;;;;;;7.15;4.50;;;-6.10;72.20;;;;;;5052997;28;20293;-60
2022/12/13 02:53:33;;;;;;;11.05;4.75;;;-6.20;72.60;;;;;;5045127;28;20208;-61
2022/12/13 02:55:58;;;;;;;5.85;4.10;;;-6.20;72.90;;;;;;5050391;28;20191;-61
2022/12/13 02:58:30;;;;;;;7.70;3.77;;;-6.10;72.80;;;;;;5036115;28;20209;-61
2022/12/13 03:01:04;;;;;;;6.53;3.40;;;-6.10;72.70;;;;;;5080639;28;20191;-60
2022/12/13 03:03:39;;;;;;;6.25;3.80;;;-6.10;72.50;;;;;;5035994;28;20190;-60
2022/12/13 03:06:34;;;;;;;7.43;4.03;;;-6.20;72.60;;;;;;5065053;28;20657;-60
2022/12/13 03:09:24;;;;;;;6.80;4.05;;;-6.20;72.60;;;;;;5036990;28;20190;-61
2022/12/13 03:15:11;;;;;;;5.13;3.45;;;-6.20;73.00;;;;;;5051547;28;20207;-60
2022/12/13 03:17:44;;;;;;;7.40;4.25;;;-6.20;73.10;;;;;;5046576;28;20680;-60
2022/12/13 03:20:14;;;;;;;5.25;3.55;;;-6.20;73.30;;;;;;5052909;28;20290;-61
2022/12/13 03:22:39;;;;;;;6.22;3.90;;;-6.30;73.40;;;;;;5055782;28;20195;-60
2022/12/13 03:25:05;;;;;;;4.30;3.07;;;-6.30;73.50;;;;;;5016087;28;20401;-60
2022/12/13 03:27:31;;;;;;;8.77;3.13;;;-6.40;73.60;;;;;;5018455;28;20249;-60
2022/12/13 03:29:58;;;;;;;5.43;3.30;;;-6.40;73.80;;;;;;5058782;28;20194;-60
2022/12/13 03:32:24;;;;;;;5.18;3.25;;;-6.40;73.70;;;;;;5034394;28;20207;-61
2022/12/13 03:34:50;;;;;;;6.23;3.70;;;-6.40;73.70;;;;;;5049088;28;20199;-60
2022/12/13 03:37:15;;;;;;;5.60;2.90;;;-6.40;73.90;;;;;;5034858;28;20184;-61
2022/12/13 03:39:41;;;;;;;5.30;3.30;;;-6.40;73.80;;;;;;5044170;28;20286;-60
2022/12/13 03:42:07;;;;;;;6.87;3.67;;;-6.40;73.70;;;;;;5046749;28;20226;-61
2022/12/13 03:44:33;;;;;;;4.87;2.80;;;-6.40;73.60;;;;;;5035271;28;20261;-60
2022/12/13 03:46:58;;;;;;;5.03;3.00;;;-6.40;73.60;;;;;;5035357;28;20186;-61
2022/12/13 03:49:24;;;;;;;3.53;2.70;;;-6.40;73.80;;;;;;5032763;28;20202;-61
2022/12/13 03:51:49;;;;;;;9.07;3.73;;;-6.40;74.00;;;;;;5048607;28;20214;-61
2022/12/13 03:54:15;;;;;;;5.40;2.57;;;-6.40;73.90;;;;;;5068656;28;20183;-61
2022/12/13 03:56:41;;;;;;;3.73;2.80;;;-6.50;73.90;;;;;;5052894;28;20195;-61
2022/12/13 03:59:06;;;;;;;9.67;3.03;;;-6.50;74.00;;;;;;5052203;28;20277;-65
2022/12/13 04:01:32;;;;;;;6.67;3.80;;;-6.50;74.10;;;;;;5035580;28;20285;-62
2022/12/13 04:03:58;;;;;;;4.90;3.20;;;-6.50;74.20;;;;;;5049974;28;20206;-63
2022/12/13 04:06:23;;;;;;;4.87;3.00;;;-6.50;74.20;;;;;;5047917;28;20245;-62
2022/12/13 04:08:50;;;;;;;4.63;3.20;;;-6.50;74.00;;;;;;5033516;28;20301;-62
2022/12/13 04:14:00;;;;;;;7.88;3.30;;;-6.60;74.90;;;;;;5039822;28;20218;-62
2022/12/13 04:16:26;;;;;;;5.73;3.17;;;-6.60;74.60;;;;;;5047339;28;20179;-62
2022/12/13 04:18:52;;;;;;;6.17;3.80;;;-6.70;74.90;;;;;;5030944;28;20190;-62
2022/12/13 04:21:17;;;;;;;4.20;3.20;;;-6.60;74.60;;;;;;5037984;28;20193;-62
2022/12/13 04:23:43;;;;;;;6.83;3.30;;;-6.60;74.40;;;;;;5038513;28;20196;-62
2022/12/13 04:26:09;;;;;;;5.40;3.40;;;-6.60;74.30;;;;;;5020573;28;20197;-62
2022/12/13 04:28:34;;;;;;;6.73;3.10;;;-6.60;74.30;;;;;;5030735;28;20194;-62
2022/12/13 04:31:00;;;;;;;4.80;3.33;;;-6.60;74.10;;;;;;5032737;28;20290;-62
2022/12/13 04:33:26;;;;;;;3.97;2.97;;;-6.60;74.10;;;;;;5033957;28;20178;-62
2022/12/13 04:35:51;;;;;;;4.10;2.73;;;-6.60;74.10;;;;;;5048692;28;20278;-62
2022/12/13 04:38:18;;;;;;;5.60;3.03;;;-6.60;74.20;;;;;;5066815;28;20187;-62
2022/12/13 04:40:43;;;;;;;5.82;3.22;;;-6.60;74.40;;;;;;5051701;28;20190;-62
2022/12/13 04:43:09;;;;;;;5.97;3.40;;;-6.70;75.40;;;;;;5051623;28;20195;-62
2022/12/13 04:45:34;;;;;;;7.97;3.33;;;-6.70;75.00;;;;;;5038687;28;20235;-62
2022/12/13 04:48:00;;;;;;;6.07;3.77;;;-6.70;74.90;;;;;;5035159;28;20205;-62
2022/12/13 04:50:26;;;;;;;4.00;3.23;;;-6.70;74.70;;;;;;5051537;28;20225;-62
2022/12/13 04:52:51;;;;;;;4.33;3.57;;;-6.70;75.00;;;;;;5054951;28;20314;-62
2022/12/13 04:55:17;;;;;;;6.27;3.70;;;-6.70;75.10;;;;;;5040919;28;20195;-63
2022/12/13 04:57:43;;;;;;;7.20;3.57;;;-6.70;75.00;;;;;;5038419;28;20225;-62
2022/12/13 05:00:12;;;;;;;5.93;4.20;;;-6.70;74.90;;;;;;5068463;28;20195;-63
2022/12/13 05:02:40;;;;;;;4.43;3.58;;;-6.70;75.00;;;;;;5037560;28;20195;-63
2022/12/13 05:05:09;;;;;;;5.88;3.22;;;-6.70;75.00;;;;;;5052356;28;20195;-63
2022/12/13 05:07:36;;;;;;;7.97;3.47;;;-6.70;75.00;;;;;;5053273;28;20195;-63
2022/12/13 05:10:02;;;;;;;6.25;3.60;;;-6.70;74.90;;;;;;5086634;28;20225;-63
2022/12/13 05:12:28;;;;;;;7.13;4.43;;;-6.70;74.80;;;;;;5038207;28;20214;-62
2022/12/13 05:14:53;;;;;;;3.97;3.10;;;-6.80;75.00;;;;;;5028433;28;20245;-62
2022/12/13 05:17:20;;;;;;;6.37;3.23;;;-6.80;75.00;;;;;;5049916;28;20221;-62
2022/12/13 05:19:45;;;;;;;5.00;3.45;;;-6.70;74.80;;;;;;5052076;28;20187;-62
2022/12/13 05:22:14;;;;;;;4.20;3.40;;;-6.80;74.70;;;;;;5062054;28;20187;-62
2022/12/13 05:24:41;;;;;;;5.28;3.28;;;-6.70;74.90;;;;;;5055193;28;20186;-62
2022/12/13 05:27:08;;;;;;;5.03;2.78;;;-6.70;74.60;;;;;;5028763;28;20206;-63
2022/12/13 05:29:35;;;;;;;5.40;2.92;;;-6.70;74.60;;;;;;5048136;28;20190;-62
2022/12/13 05:32:00;;;;;;;6.28;3.17;;;-6.70;74.50;;;;;;5052176;28;20222;-63
2022/12/13 05:34:26;;;;;;;5.50;3.03;;;-6.80;74.70;;;;;;5087292;28;20190;-62
2022/12/13 05:36:52;;;;;;;8.07;3.37;;;-6.70;74.70;;;;;;5049353;28;20240;-62
2022/12/13 05:39:18;;;;;;;4.33;2.90;;;-6.70;74.40;;;;;;5048511;28;20179;-63
2022/12/13 05:41:43;;;;;;;6.07;3.00;;;-6.70;74.60;;;;;;5044518;28;20217;-63
2022/12/13 05:44:12;;;;;;;3.80;2.97;;;-6.70;74.50;;;;;;5034311;28;20238;-62
2022/12/13 05:46:38;;;;;;;5.07;3.30;;;-6.70;74.30;;;;;;5046048;28;20237;-63
2022/12/13 05:49:03;;;;;;;4.33;3.33;;;-6.70;74.40;;;;;;5053419;28;20221;-63
2022/12/13 05:51:29;;;;;;;5.73;3.97;;;-6.70;74.20;;;;;;5045089;28;20218;-62
2022/12/13 05:53:54;;;;;;;8.77;4.03;;;-6.70;74.40;;;;;;5045141;28;20187;-62
2022/12/13 05:56:20;;;;;;;6.60;3.80;;;-6.70;74.70;;;;;;5034427;28;20195;-62
2022/12/13 05:58:46;;;;;;;9.63;4.07;;;-6.70;74.70;;;;;;5051010;28;20194;-62
2022/12/13 06:01:13;;;;;;;9.10;4.10;;;-6.70;74.60;;;;;;5034687;28;20681;-62
2022/12/13 06:03:40;;;;;;;7.00;4.82;;;-6.70;74.50;;;;;;5034318;28;20195;-62
2022/12/13 06:06:08;;;;;;;7.40;4.28;;;-6.70;74.50;;;;;;5031914;28;20196;-62
2022/12/13 06:08:34;;;;;;;5.53;3.83;;;-6.70;74.40;;;;;;5018596;28;20206;-61
2022/12/13 06:11:01;;;;;;;7.50;3.35;;;-6.70;74.40;;;;;;5029257;28;20221;-62
2022/12/13 06:13:27;;;;;;;6.00;3.72;;;-6.60;74.20;;;;;;5033733;28;20180;-61
2022/12/13 06:15:53;;;;;;;7.53;4.20;;;-6.60;73.70;;;;;;5018198;28;20202;-62
2022/12/13 06:18:19;;;;;;;8.17;4.50;;;-6.60;73.60;;;;;;5044868;28;20192;-62
2022/12/13 06:20:46;;;;;;;7.17;4.50;;;-6.60;73.30;;;;;;5035897;28;20442;-62
2022/12/13 06:23:11;;;;;;;5.82;4.22;;;-6.60;73.40;;;;;;5044382;28;20188;-62
2022/12/13 06:25:37;;;;;;;5.60;3.93;;;-6.60;73.40;;;;;;5030816;28;20249;-62
2022/12/13 06:28:03;;;;;;;5.57;3.90;;;-6.70;73.60;;;;;;5015082;28;20243;-64
2022/12/13 06:30:29;;;;;;;7.63;4.13;;;-6.70;74.10;;;;;;5031113;28;20188;-62
2022/12/13 06:32:55;;;;;;;6.10;4.03;;;-6.70;73.60;;;;;;5022356;28;20212;-62
2022/12/13 06:35:21;;;;;;;7.67;4.40;;;-6.70;73.50;;;;;;5023987;28;20709;-62
2022/12/13 06:37:51;;;;;;;6.30;4.10;;;-6.60;73.60;;;;;;5026332;28;20196;-62
2022/12/13 06:40:16;;;;;;;7.80;4.00;;;-6.60;73.60;;;;;;5032415;28;20207;-62
2022/12/13 06:42:42;;;;;;;6.80;3.80;;;-6.60;73.70;;;;;;5030585;28;20199;-62
2022/12/13 06:45:08;;;;;;;8.23;4.10;;;-6.60;73.70;;;;;;5043654;28;20238;-62
2022/12/13 06:47:34;;;;;;;6.13;3.55;;;-6.60;73.60;;;;;;5032729;28;20267;-62
2022/12/13 06:49:59;;;;;;;6.80;3.73;;;-6.60;73.40;;;;;;5013914;28;20283;-62
2022/12/13 06:52:25;;;;;;;5.83;3.40;;;-6.60;73.30;;;;;;5024650;28;20204;-62
2022/12/13 06:54:51;;;;;;;6.33;3.77;;;-6.60;73.40;;;;;;5007899;28;20322;-62
2022/12/13 06:57:17;;;;;;;6.80;4.23;;;-6.60;73.40;;;;;;5029907;28;20195;-62
2022/12/13 06:59:42;;;;;;;6.13;3.90;;;-6.60;73.80;;;;;;5029566;28;20191;-62
2022/12/13 07:02:08;;;;;;;5.00;3.63;;;-6.60;73.80;;;;;;5033833;28;20207;-62
2022/12/13 07:04:34;;;;;;;6.17;3.53;;;-6.60;73.90;;;;;;5033794;28;20256;-62
2022/12/13 07:06:59;;;;;;;8.10;3.90;;;-6.60;73.90;;;;;;5034049;28;20286;-62
2022/12/13 07:09:25;;;;;;;7.70;4.13;;;-6.60;73.60;;;;;;5025174;28;20192;-64
2022/12/13 07:11:51;;;;;;;5.20;3.13;;;-6.60;73.80;;;;;;5033519;28;20222;-64
2022/12/13 07:14:16;;;;;;;6.10;3.20;;;-6.60;73.60;;;;;;5027110;28;20275;-64
2022/12/13 07:16:42;;;;;;;6.43;3.77;;;-6.50;73.60;;;;;;5033784;28;20187;-64
2022/12/13 07:19:10;;;;;;;5.93;3.77;;;-6.40;73.60;;;;;;5029438;28;20188;-64
2022/12/13 07:21:37;;;;;;;8.50;3.97;;;-6.40;73.30;;;;;;5032060;28;20203;-64
2022/12/13 07:24:03;;;;;;;6.60;3.38;;;-6.40;73.20;;;;;;5029819;28;20207;-64
2022/12/13 07:26:29;;;;;;;6.38;3.83;;;-6.40;73.50;;;;;;5030951;28;20192;-64
2022/12/13 07:28:54;;;;;;;4.83;2.97;;;-6.40;73.30;;;;;;4999315;28;20199;-64
2022/12/13 07:31:20;;;;;;;8.50;4.17;;;-6.40;73.20;;;;;;5029631;28;20306;-64
2022/12/13 07:33:46;;;;;;;6.23;3.13;;;-6.30;73.00;;;;;;5009978;28;20190;-64
2022/12/13 07:36:14;;;;;;;8.33;3.73;;;-6.30;73.00;;;;;;5005417;28;20196;-64
2022/12/13 07:38:40;;;;;;;4.78;3.45;;;-6.30;73.00;;;;;;5033536;28;20198;-64
2022/12/13 07:41:06;;;;;;;8.15;3.78;;;-6.20;72.90;;;;;;5043483;28;20290;-64
2022/12/13 07:43:33;;;;;;;7.28;4.20;;;-6.20;72.70;;;;;;5031147;28;20187;-64
2022/12/13 07:46:01;;;;;;;6.18;4.18;;;-6.20;72.70;;;;;;5030135;28;20227;-64
2022/12/13 07:48:27;;;;;;;6.88;3.97;;;-6.30;73.00;;;;;;5030269;28;20252;-64
2022/12/13 07:50:59;;;;;;;8.10;4.10;;;-6.30;73.40;;;;;;5032181;28;20237;-64
2022/12/13 07:53:24;;;;;;;9.27;3.65;;;-6.20;73.20;;;;;;5031062;28;20230;-64
2022/12/13 07:55:50;;;;;;;6.63;3.97;;;-6.10;73.10;;;;;;5031100;28;20219;-64
2022/12/13 07:58:15;;;;;;;7.77;4.00;;;-6.10;73.00;;;;;;5029955;28;20191;-64
2022/12/13 08:00:43;;;;;;;6.93;3.87;;;-6.00;72.90;;;;;;5031215;28;20207;-64
2022/12/13 08:03:09;;;;;;;8.45;4.63;;;-6.00;72.70;;;;;;5028735;28;20250;-64
2022/12/13 08:05:36;;;;;;;7.03;4.10;;;-6.00;72.50;;;;;;5011933;28;20209;-64
2022/12/13 08:08:03;;;;;;;9.40;4.90;;;-5.90;72.30;;;;;;5030383;28;20196;-64
2022/12/13 08:10:29;;;;;;;5.85;4.28;;;-5.80;72.20;;;;;;5031688;28;20442;-64
2022/12/13 08:12:55;;;;;;;7.03;4.63;;;-5.80;71.40;;;;;;5045895;28;20282;-64
2022/12/13 08:15:21;;;;;;;9.00;4.32;;;-5.70;71.50;;;;;;5012004;28;20249;-64
2022/12/13 08:17:48;;;;;;;6.43;4.23;;;-5.70;71.30;;;;;;5027517;28;20196;-64
2022/12/13 08:20:14;;;;;;;7.47;4.07;;;-5.60;71.00;;;;;;5029836;28;20674;-64
2022/12/13 08:22:40;;;;;;;9.40;5.28;;;-5.60;71.00;;;;;;5031476;28;20195;-64
2022/12/13 08:25:06;;;;;;;9.93;5.03;;;-5.60;70.40;;;;;;5031267;28;20282;-64
2022/12/13 08:27:32;;;;;;;8.85;4.75;;;-5.50;70.00;;;;;;5051070;28;20196;-64
2022/12/13 08:29:58;;;;;;;9.33;4.40;;;-5.40;69.70;;;;;;5034596;28;20619;-64
2022/12/13 08:32:24;;;;;;;8.10;4.50;;;-5.40;69.60;;;;;;5016643;28;20215;-64
2022/12/13 08:34:49;;;;;;;9.30;4.83;;;-5.30;69.50;;;;;;5031262;28;20191;-64
2022/12/13 08:37:15;;;;;;;10.70;5.17;;;-5.20;69.20;;;;;;5032879;28;20188;-64
2022/12/13 08:39:41;;;;;;;11.27;4.53;;;-5.20;69.20;;;;;;5017259;28;20192;-64
2022/12/13 08:42:17;;;;;;;9.63;5.20;;;-5.20;68.90;;;;;;5033959;28;20800;-64
2022/12/13 08:44:52;;;;;;;7.23;4.97;;;-5.10;69.00;;;;;;5049442;28;20246;-64
2022/12/13 08:47:24;;;;;;;10.67;5.07;;;-5.10;68.80;;;;;;5043603;28;20423;-64
2022/12/13 08:49:50;;;;;;;8.97;4.93;;;-5.00;68.30;;;;;;5015214;28;20434;-64
2022/12/13 08:52:15;;;;;;;6.53;4.37;;;-5.00;67.90;;;;;;5015911;28;20467;-64
2022/12/13 08:54:43;;;;;;;9.80;5.57;;;-4.90;68.00;;;;;;5035787;28;20261;-64
2022/12/13 08:57:09;;;;;;;9.00;4.97;;;-4.90;67.60;;;;;;5030869;28;20197;-64
2022/12/13 08:59:34;;;;;;;8.70;5.33;;;-4.80;67.50;;;;;;5015519;28;20511;-64
2022/12/13 09:02:00;;;;;;;7.87;5.63;;;-4.70;67.10;;;;;;5043264;28;20269;-64
2022/12/13 09:04:26;;;;;;;14.53;6.00;;;-4.70;67.60;;;;;;5031193;28;20224;-64
2022/12/13 09:06:51;;;;;;;9.00;5.73;;;-4.70;67.40;;;;;;5038594;28;20199;-64
2022/12/13 09:09:17;;;;;;;8.47;4.97;;;-4.60;67.50;;;;;;5006064;28;20192;-64
2022/12/13 09:11:43;;;;;;;8.97;5.33;;;-4.60;67.20;;;;;;5033149;28;20217;-64
2022/12/13 09:14:08;;;;;;;7.63;6.13;;;-4.50;67.10;;;;;;5001788;28;20206;-64
2022/12/13 09:16:37;;;;;;;8.63;4.23;;;-4.40;67.00;;;;;;5014295;28;20187;-64
2022/12/13 09:19:04;;;;;;;12.60;6.57;;;-4.40;67.10;;;;;;5023764;28;20228;-64
2022/12/13 09:21:30;;;;;;;11.00;5.83;;;-4.30;67.00;;;;;;5044932;28;20442;-64
2022/12/13 09:23:55;;;;;;;7.57;5.03;;;-4.30;67.10;;;;;;5017893;28;20433;-64
2022/12/13 09:26:21;;;;;;;10.17;4.53;;;-4.20;67.10;;;;;;5031208;28;20218;-64
2022/12/13 09:28:46;;;;;;;7.70;4.77;;;-4.20;67.00;;;;;;5031036;28;20199;-64
2022/12/13 09:31:17;;;;;;;12.23;5.27;;;-4.10;66.80;;;;;;5060048;28;20221;-64
2022/12/13 09:33:44;;;;;;;9.37;4.53;;;-4.10;66.10;;;;;;5047354;28;20201;-64
2022/12/13 09:36:15;;;;;;;11.23;4.60;;;-4.00;66.50;;;;;;5065140;28;20444;-64
2022/12/13 09:38:42;;;;;;;11.57;5.23;;;-4.00;66.30;;;;;;5029185;28;20422;-64
2022/12/13 09:41:26;;;;;;;11.73;4.80;;;-4.00;65.90;;;;;;5034551;28;20464;-64
2022/12/13 09:43:57;;;;;;;8.30;4.83;;;-3.90;64.00;;;;;;5024497;28;20921;-64
2022/12/13 09:46:28;;;;;;;5.73;4.17;;;-3.80;63.60;;;;;;5029766;28;20458;-64
2022/12/13 09:48:55;;;;;;;5.93;3.97;;;-3.80;63.70;;;;;;5047986;28;20494;-64
2022/12/13 09:51:22;;;;;;;7.40;4.60;;;-3.70;63.60;;;;;;5034009;28;20474;-64
2022/12/13 09:53:50;;;;;;;6.73;3.53;;;-3.60;61.40;;;;;;5009177;28;20448;-64
2022/12/13 09:56:18;;;;;;;7.50;4.70;;;-3.60;61.40;;;;;;5025980;28;20545;-64
2022/12/13 09:58:48;;;;;;;9.13;4.27;;;-3.50;61.30;;;;;;5017166;28;20435;-64
2022/12/13 10:01:14;;;;;;;6.83;4.17;;;-3.40;61.20;;;;;;5020995;28;20543;-64
2022/12/13 10:03:44;;;;;;;7.83;4.30;;;-3.30;61.30;;;;;;5031197;28;20442;-64
2022/12/13 10:06:16;;;;;;;6.60;4.50;;;-3.20;60.70;;;;;;5045265;28;20438;-64
2022/12/13 10:08:52;;;;;;;6.77;3.93;;;-3.20;60.80;;;;;;5032634;28;20435;-64
2022/12/13 10:11:19;;;;;;;6.93;4.40;;;-3.00;60.20;;;;;;5030168;28;20438;-64
2022/12/13 10:13:57;;;;;;;7.33;4.37;;;-3.00;60.20;;;;;;5031890;28;20438;-64
2022/12/13 10:16:32;;;;;;;5.93;3.63;;;-2.90;59.20;;;;;;5032942;28;20434;-64
2022/12/13 10:18:58;;;;;;;12.03;4.30;;;-2.80;57.00;;;;;;5029405;28;20486;-64
2022/12/13 10:21:38;;;;;;;6.10;4.47;;;-2.80;59.00;;;;;;5028781;28;20447;-64
2022/12/13 10:24:21;;;;;;;9.33;4.33;;;-2.70;58.40;;;;;;5026910;28;20187;-64
2022/12/13 10:26:47;;;;;;;8.33;4.00;;;-2.60;57.80;;;;;;5024312;28;20445;-64
2022/12/13 10:29:13;;;;;;;5.47;4.13;;;-2.60;57.70;;;;;;5011965;28;20442;-64
2022/12/13 10:31:41;;;;;;;8.33;4.53;;;-2.50;57.20;;;;;;5025268;28;20221;-64
2022/12/13 10:34:21;;;;;;;7.80;4.40;;;-2.40;57.10;;;;;;5045114;28;20441;-64
2022/12/13 10:36:47;;;;;;;8.67;3.97;;;-2.30;57.10;;;;;;5033673;28;20447;-64
2022/12/13 10:39:18;;;;;;;7.20;4.80;;;-2.30;55.70;;;;;;5063280;28;20439;-64
2022/12/13 10:41:46;;;;;;;8.27;4.53;;;-2.20;56.00;;;;;;5032300;28;20299;-64
2022/12/13 10:44:14;;;;;;;7.13;4.43;;;-2.10;55.20;;;;;;5037827;28;20438;-64
2022/12/13 10:46:50;;;;;;;5.30;4.10;;;-2.10;55.00;;;;;;5026708;28;20461;-64
2022/12/13 10:49:20;;;;;;;6.87;4.40;;;-2.10;54.90;;;;;;5019555;28;20438;-64
2022/12/13 10:51:46;;;;;;;4.53;3.30;;;-2.10;55.00;;;;;;5014748;28;20614;-64
2022/12/13 10:54:33;;;;;;;9.10;4.27;;;-1.90;55.20;;;;;;5031380;28;20451;-64
2022/12/13 10:56:59;;;;;;;8.47;4.90;;;-1.80;54.90;;;;;;5031041;28;20438;-64
2022/12/13 10:59:26;;;;;;;9.13;5.33;;;-1.80;54.70;;;;;;5029897;28;20464;-64
2022/12/13 11:01:52;;;;;;;10.80;5.57;;;-1.70;54.10;;;;;;5029221;28;20439;-64
2022/12/13 11:04:28;;;;;;;10.20;4.97;;;-1.60;56.40;;;;;;5025173;28;20202;-64
2022/12/13 11:06:54;;;;;;;8.40;4.73;;;-1.50;54.50;;;;;;5046451;28;20442;-64
2022/12/13 11:09:31;;;;;;;7.50;5.53;;;-1.50;54.40;;;;;;5031484;28;20431;-64
2022/12/13 11:12:01;;;;;;;10.17;6.27;;;-1.50;55.30;;;;;;5023732;28;20471;-64
2022/12/13 11:14:31;;;;;;;9.90;5.70;;;-1.50;55.60;;;;;;5032660;28;20489;-64
2022/12/13 11:17:06;;;;;;;11.17;5.27;;;-1.40;54.70;;;;;;5027664;28;20503;-64
2022/12/13 11:19:37;;;;;;;20.73;6.43;;;-1.30;55.20;;;;;;5031839;28;20442;-64
2022/12/13 11:22:04;;;;;;;17.00;6.70;;;-1.30;56.50;;;;;;5027273;28;20429;-64
2022/12/13 11:24:36;;;;;;;11.57;6.70;;;-1.20;56.70;;;;;;5044492;28;20441;-64
2022/12/13 11:27:33;;;;;;;16.37;7.53;;;-1.10;55.70;;;;;;5030897;28;20507;-64
2022/12/13 11:30:03;;;;;;;10.73;6.43;;;-1.10;55.50;;;;;;5034798;28;20447;-64
2022/12/13 11:32:41;;;;;;;10.27;6.80;;;-1.00;55.00;;;;;;5014383;28;20483;-64
2022/12/13 11:35:38;;;;;;;15.23;6.83;;;-1.00;55.90;;;;;;5021409;28;20427;-64
2022/12/13 11:38:25;;;;;;;11.33;6.53;;;-0.90;55.30;;;;;;5026648;28;20417;-64
2022/12/13 11:41:30;;;;;;;10.17;5.70;;;-0.90;54.30;;;;;;5044589;28;20474;-64
2022/12/13 11:44:21;;;;;;;9.20;5.77;;;-0.70;53.60;;;;;;5031941;28;20429;-64
2022/12/13 11:46:55;;;;;;;11.27;6.03;;;-0.70;54.70;;;;;;5041964;28;20456;-64
2022/12/13 11:49:38;;;;;;;8.13;5.70;;;-0.60;53.40;;;;;;5043462;28;20508;-64
2022/12/13 11:52:20;;;;;;;8.77;5.57;;;-0.50;54.00;;;;;;5031437;28;20467;-64
2022/12/13 11:55:08;;;;;;;8.57;6.03;;;-0.40;53.90;;;;;;5028712;28;20440;-64
2022/12/13 11:57:45;;;;;;;11.20;6.37;;;-0.30;52.50;;;;;;5028436;28;20440;-64
2022/12/13 12:00:27;;;;;;;10.87;5.70;;;-0.30;53.10;;;;;;5039810;28;21028;-64
2022/12/13 12:02:59;;;;;;;10.03;5.93;;;-0.20;52.50;;;;;;5030003;28;20447;-64
2022/12/13 12:05:34;;;;;;;9.40;5.20;;;-0.20;52.80;;;;;;5029911;28;20483;-64
2022/12/13 12:08:25;;;;;;;10.07;5.30;;;-0.10;53.20;;;;;;5031047;28;20449;-64
2022/12/13 12:11:19;;;;;;;9.33;5.47;;;-0.10;51.60;;;;;;5032127;28;20437;-64
2022/12/13 12:13:51;;;;;;;7.17;4.50;;;-0.10;51.40;;;;;;5021637;28;20495;-64
2022/12/13 12:16:34;;;;;;;8.00;4.73;;;0.00;51.20;;;;;;5031758;28;20438;-64
2022/12/13 12:19:00;;;;;;;10.20;5.67;;;0.00;49.90;;;;;;5030000;28;21003;-64
2022/12/13 12:21:38;;;;;;;5.90;4.07;;;0.00;50.60;;;;;;5019569;28;20441;-64
2022/12/13 12:24:44;;;;;;;7.13;4.70;;;0.00;51.00;;;;;;5030430;28;20193;-64
2022/12/13 12:27:27;;;;;;;6.93;3.70;;;0.00;51.20;;;;;;5038267;28;20421;-64
2022/12/13 12:30:01;;;;;;;6.83;4.30;;;0.00;50.00;;;;;;5033266;28;20434;-64
2022/12/13 12:32:50;;;;;;;6.30;3.80;;;0.00;50.70;;;;;;5042076;28;20533;-64
2022/12/13 12:35:25;;;;;;;5.80;3.97;;;0.10;49.50;;;;;;5029370;28;20429;-64
2022/12/13 12:38:13;;;;;;;5.43;3.93;;;0.20;49.10;;;;;;5030287;28;20921;-64
2022/12/13 12:41:03;;;;;;;7.93;4.60;;;0.10;48.50;;;;;;5023732;28;20445;-64
2022/12/13 12:43:39;;;;;;;4.33;3.43;;;0.30;50.00;;;;;;5025701;28;20426;-64
2022/12/13 12:46:52;;;;;;;7.30;4.20;;;0.30;49.40;;;;;;5035753;28;20505;-64
2022/12/13 12:49:46;;;;;;;5.73;4.33;;;0.40;50.50;;;;;;5012130;28;20448;-64
2022/12/13 12:52:40;;;;;;;6.13;3.93;;;0.40;50.00;;;;;;5003351;28;20569;-64
2022/12/13 12:55:12;;;;;;;6.43;3.87;;;0.50;49.50;;;;;;5021240;28;20442;-64
2022/12/13 12:57:58;;;;;;;5.43;3.73;;;0.60;48.80;;;;;;5024163;28;20410;-64
2022/12/13 13:00:27;;;;;;;4.30;3.23;;;0.60;47.30;;;;;;5027558;28;20422;-64
2022/12/13 13:03:01;;;;;;;4.10;2.90;;;0.50;47.50;;;;;;5027416;28;20478;-64
2022/12/13 13:05:51;;;;;;;4.30;3.20;;;0.60;46.60;;;;;;5044916;28;20430;-64